sensor_id;sensor_type;location;lat;lon;timestamp;pressure;altitude;pressure_sealevel;temperature;humidity
45129;BME280;35512;56.312;101.728;2022-11-15T00:02:42;95422.09;;;-1.62;77.45
45129;BME280;35512;56.312;101.728;2022-11-15T00:05:29;95418.22;;;-1.65;77.30
45129;BME280;35512;56.312;101.728;2022-11-15T00:08:20;95422.28;;;-1.67;76.97
45129;BME280;35512;56.312;101.728;2022-11-15T00:11:10;95419.28;;;-1.75;77.30
45129;BME280;35512;56.312;101.728;2022-11-15T00:13:58;95412.56;;;-1.81;77.06
45129;BME280;35512;56.312;101.728;2022-11-15T00:16:49;95412.25;;;-1.79;77.28
45129;BME280;35512;56.312;101.728;2022-11-15T00:19:36;95406.97;;;-1.79;77.83
45129;BME280;35512;56.312;101.728;2022-11-15T00:22:23;95392.47;;;-1.91;77.64
45129;BME280;35512;56.312;101.728;2022-11-15T00:25:10;95398.41;;;-1.76;78.11
45129;BME280;35512;56.312;101.728;2022-11-15T00:27:59;95402.31;;;-1.74;77.70
45129;BME280;35512;56.312;101.728;2022-11-15T00:30:46;95394.69;;;-1.84;77.62
45129;BME280;35512;56.312;101.728;2022-11-15T00:33:33;95405.75;;;-1.73;78.06
45129;BME280;35512;56.312;101.728;2022-11-15T00:36:21;95399.22;;;-1.76;77.65
45129;BME280;35512;56.312;101.728;2022-11-15T00:39:08;95411.38;;;-1.66;77.91
45129;BME280;35512;56.312;101.728;2022-11-15T00:41:56;95409.66;;;-1.62;77.74
45129;BME280;35512;56.312;101.728;2022-11-15T00:44:43;95411.69;;;-1.59;77.57
45129;BME280;35512;56.312;101.728;2022-11-15T00:47:31;95405.19;;;-1.52;77.54
45129;BME280;35512;56.312;101.728;2022-11-15T00:50:18;95412.66;;;-1.46;77.86
45129;BME280;35512;56.312;101.728;2022-11-15T00:53:06;95403.28;;;-1.43;78.02
45129;BME280;35512;56.312;101.728;2022-11-15T00:55:53;95403.94;;;-1.38;77.61
45129;BME280;35512;56.312;101.728;2022-11-15T00:58:40;95397.84;;;-1.38;77.59
45129;BME280;35512;56.312;101.728;2022-11-15T01:01:28;95405.03;;;-1.39;77.78
45129;BME280;35512;56.312;101.728;2022-11-15T01:04:16;95393.66;;;-1.39;77.41
45129;BME280;35512;56.312;101.728;2022-11-15T01:07:04;95385.41;;;-1.38;77.35
45129;BME280;35512;56.312;101.728;2022-11-15T01:09:51;95394.75;;;-1.31;77.55
45129;BME280;35512;56.312;101.728;2022-11-15T01:12:38;95402.84;;;-1.19;77.70
45129;BME280;35512;56.312;101.728;2022-11-15T01:15:25;95400.81;;;-1.13;78.04
45129;BME280;35512;56.312;101.728;2022-11-15T01:18:12;95404.41;;;-1.09;77.38
45129;BME280;35512;56.312;101.728;2022-11-15T01:20:59;95397.25;;;-1.09;77.53
45129;BME280;35512;56.312;101.728;2022-11-15T01:23:47;95400.38;;;-1.07;77.02
45129;BME280;35512;56.312;101.728;2022-11-15T01:26:34;95395.38;;;-1.08;77.29
45129;BME280;35512;56.312;101.728;2022-11-15T01:29:21;95391.81;;;-1.04;77.38
45129;BME280;35512;56.312;101.728;2022-11-15T01:32:08;95405.38;;;-0.96;77.26
45129;BME280;35512;56.312;101.728;2022-11-15T01:34:55;95381.22;;;-1.04;77.12
45129;BME280;35512;56.312;101.728;2022-11-15T01:37:42;95402.56;;;-0.91;77.31
45129;BME280;35512;56.312;101.728;2022-11-15T01:40:30;95398.97;;;-0.87;77.20
45129;BME280;35512;56.312;101.728;2022-11-15T01:43:33;95393.63;;;-0.78;77.37
45129;BME280;35512;56.312;101.728;2022-11-15T01:46:29;95387.72;;;-0.75;77.34
45129;BME280;35512;56.312;101.728;2022-11-15T01:49:19;95377.56;;;-0.73;77.01
45129;BME280;35512;56.312;101.728;2022-11-15T01:52:11;95381.31;;;-0.65;76.73
45129;BME280;35512;56.312;101.728;2022-11-15T01:58:02;95383.31;;;-0.62;77.42
45129;BME280;35512;56.312;101.728;2022-11-15T02:00:52;95380.69;;;-0.62;77.64
45129;BME280;35512;56.312;101.728;2022-11-15T02:03:54;95380.50;;;-0.57;77.20
45129;BME280;35512;56.312;101.728;2022-11-15T02:06:44;95376.78;;;-0.56;77.20
45129;BME280;35512;56.312;101.728;2022-11-15T02:09:36;95375.03;;;-0.52;77.28
45129;BME280;35512;56.312;101.728;2022-11-15T02:12:23;95367.84;;;-0.51;77.60
45129;BME280;35512;56.312;101.728;2022-11-15T02:15:11;95373.78;;;-0.45;77.20
45129;BME280;35512;56.312;101.728;2022-11-15T02:18:05;95375.00;;;-0.43;77.52
45129;BME280;35512;56.312;101.728;2022-11-15T02:36:29;95361.84;;;-0.22;77.44
45129;BME280;35512;56.312;101.728;2022-11-15T02:39:50;95357.78;;;-0.19;77.81
45129;BME280;35512;56.312;101.728;2022-11-15T02:42:46;95365.41;;;-0.18;77.80
45129;BME280;35512;56.312;101.728;2022-11-15T02:45:58;95367.56;;;-0.11;78.09
45129;BME280;35512;56.312;101.728;2022-11-15T02:48:45;95355.53;;;-0.08;77.82
45129;BME280;35512;56.312;101.728;2022-11-15T02:51:33;95361.31;;;-0.06;77.52
45129;BME280;35512;56.312;101.728;2022-11-15T02:54:28;95349.28;;;-0.04;78.05
45129;BME280;35512;56.312;101.728;2022-11-15T02:57:18;95344.41;;;-0.02;78.11
45129;BME280;35512;56.312;101.728;2022-11-15T03:00:13;95343.47;;;0.03;77.87
45129;BME280;35512;56.312;101.728;2022-11-15T03:06:35;95342.47;;;0.16;78.26
45129;BME280;35512;56.312;101.728;2022-11-15T03:09:37;95340.50;;;0.26;77.69
45129;BME280;35512;56.312;101.728;2022-11-15T03:12:48;95324.41;;;0.31;77.84
45129;BME280;35512;56.312;101.728;2022-11-15T03:16:05;95327.00;;;0.40;77.61
45129;BME280;35512;56.312;101.728;2022-11-15T03:18:56;95316.31;;;0.48;77.95
45129;BME280;35512;56.312;101.728;2022-11-15T03:21:46;95319.69;;;0.58;78.04
45129;BME280;35512;56.312;101.728;2022-11-15T03:24:36;95300.75;;;0.59;77.64
45129;BME280;35512;56.312;101.728;2022-11-15T03:27:33;95308.25;;;0.78;77.61
45129;BME280;35512;56.312;101.728;2022-11-15T03:30:21;95306.75;;;0.90;77.43
45129;BME280;35512;56.312;101.728;2022-11-15T03:33:10;95314.38;;;0.91;77.29
45129;BME280;35512;56.312;101.728;2022-11-15T03:35:58;95313.63;;;0.91;77.28
45129;BME280;35512;56.312;101.728;2022-11-15T03:38:46;95314.63;;;0.86;77.05
45129;BME280;35512;56.312;101.728;2022-11-15T03:47:38;95316.03;;;0.83;77.19
45129;BME280;35512;56.312;101.728;2022-11-15T03:50:26;95315.25;;;0.83;77.72
45129;BME280;35512;56.312;101.728;2022-11-15T03:53:15;95304.63;;;0.83;77.37
45129;BME280;35512;56.312;101.728;2022-11-15T03:56:02;95294.59;;;0.89;77.25
45129;BME280;35512;56.312;101.728;2022-11-15T03:58:49;95299.03;;;0.97;77.28
45129;BME280;35512;56.312;101.728;2022-11-15T04:01:36;95293.06;;;1.00;77.23
45129;BME280;35512;56.312;101.728;2022-11-15T04:04:24;95287.28;;;0.98;77.13
45129;BME280;35512;56.312;101.728;2022-11-15T04:07:12;95291.16;;;1.00;77.31
45129;BME280;35512;56.312;101.728;2022-11-15T04:09:59;95273.09;;;0.94;76.90
45129;BME280;35512;56.312;101.728;2022-11-15T04:12:50;95287.06;;;1.03;76.82
45129;BME280;35512;56.312;101.728;2022-11-15T04:15:37;95277.50;;;0.90;76.52
45129;BME280;35512;56.312;101.728;2022-11-15T04:18:24;95278.03;;;0.83;77.42
45129;BME280;35512;56.312;101.728;2022-11-15T04:21:12;95266.63;;;0.82;77.30
45129;BME280;35512;56.312;101.728;2022-11-15T04:24:18;95267.63;;;0.78;77.66
45129;BME280;35512;56.312;101.728;2022-11-15T04:27:05;95267.94;;;0.76;77.51
45129;BME280;35512;56.312;101.728;2022-11-15T04:29:52;95264.72;;;0.71;77.31
45129;BME280;35512;56.312;101.728;2022-11-15T04:32:39;95268.50;;;0.70;77.93
45129;BME280;35512;56.312;101.728;2022-11-15T04:35:27;95264.28;;;0.69;77.83
45129;BME280;35512;56.312;101.728;2022-11-15T04:38:14;95251.75;;;0.69;78.13
45129;BME280;35512;56.312;101.728;2022-11-15T04:41:01;95267.38;;;0.71;78.11
45129;BME280;35512;56.312;101.728;2022-11-15T04:43:48;95264.59;;;0.67;78.53
45129;BME280;35512;56.312;101.728;2022-11-15T04:46:35;95254.03;;;0.58;78.42
45129;BME280;35512;56.312;101.728;2022-11-15T04:49:22;95252.59;;;0.61;78.97
45129;BME280;35512;56.312;101.728;2022-11-15T04:52:10;95251.63;;;0.65;78.92
45129;BME280;35512;56.312;101.728;2022-11-15T04:54:57;95250.84;;;0.65;78.74
45129;BME280;35512;56.312;101.728;2022-11-15T04:57:59;95239.47;;;0.64;78.90
45129;BME280;35512;56.312;101.728;2022-11-15T05:00:46;95244.25;;;0.71;79.18
45129;BME280;35512;56.312;101.728;2022-11-15T05:03:35;95235.28;;;0.76;78.91
45129;BME280;35512;56.312;101.728;2022-11-15T05:06:40;95233.38;;;0.76;79.10
45129;BME280;35512;56.312;101.728;2022-11-15T05:09:27;95228.53;;;0.78;79.13
45129;BME280;35512;56.312;101.728;2022-11-15T05:12:14;95232.75;;;0.79;79.41
45129;BME280;35512;56.312;101.728;2022-11-15T05:15:02;95222.88;;;0.80;80.02
45129;BME280;35512;56.312;101.728;2022-11-15T05:17:49;95218.66;;;0.79;80.24
45129;BME280;35512;56.312;101.728;2022-11-15T05:20:36;95216.81;;;0.79;80.93
45129;BME280;35512;56.312;101.728;2022-11-15T05:23:23;95216.00;;;0.79;81.73
45129;BME280;35512;56.312;101.728;2022-11-15T05:26:11;95219.91;;;0.81;81.96
45129;BME280;35512;56.312;101.728;2022-11-15T05:28:59;95215.03;;;0.83;82.40
45129;BME280;35512;56.312;101.728;2022-11-15T05:31:46;95212.94;;;0.89;82.68
45129;BME280;35512;56.312;101.728;2022-11-15T05:34:33;95203.63;;;0.95;82.67
45129;BME280;35512;56.312;101.728;2022-11-15T05:37:20;95197.69;;;0.98;82.89
45129;BME280;35512;56.312;101.728;2022-11-15T05:40:08;95198.69;;;1.06;83.34
45129;BME280;35512;56.312;101.728;2022-11-15T05:42:55;95195.38;;;1.09;83.28
45129;BME280;35512;56.312;101.728;2022-11-15T05:45:43;95207.53;;;1.10;83.44
45129;BME280;35512;56.312;101.728;2022-11-15T05:48:31;95199.56;;;1.10;84.12
45129;BME280;35512;56.312;101.728;2022-11-15T05:51:21;95195.47;;;1.00;84.03
45129;BME280;35512;56.312;101.728;2022-11-15T05:54:10;95190.81;;;0.97;84.62
45129;BME280;35512;56.312;101.728;2022-11-15T05:56:58;95187.16;;;1.02;84.62
45129;BME280;35512;56.312;101.728;2022-11-15T05:59:46;95180.72;;;1.03;84.89
45129;BME280;35512;56.312;101.728;2022-11-15T06:02:34;95168.88;;;1.00;84.89
45129;BME280;35512;56.312;101.728;2022-11-15T06:05:22;95170.31;;;0.98;85.29
45129;BME280;35512;56.312;101.728;2022-11-15T06:08:09;95163.34;;;1.06;85.77
45129;BME280;35512;56.312;101.728;2022-11-15T06:11:02;95169.56;;;1.10;85.65
45129;BME280;35512;56.312;101.728;2022-11-15T06:13:49;95167.00;;;1.13;86.12
45129;BME280;35512;56.312;101.728;2022-11-15T06:16:37;95161.03;;;1.04;86.08
45129;BME280;35512;56.312;101.728;2022-11-15T06:19:24;95168.88;;;1.13;86.25
45129;BME280;35512;56.312;101.728;2022-11-15T06:22:11;95164.13;;;1.18;86.28
45129;BME280;35512;56.312;101.728;2022-11-15T06:24:58;95174.88;;;1.22;86.65
45129;BME280;35512;56.312;101.728;2022-11-15T06:27:55;95172.97;;;1.23;87.01
45129;BME280;35512;56.312;101.728;2022-11-15T06:30:42;95164.78;;;1.15;87.00
45129;BME280;35512;56.312;101.728;2022-11-15T06:33:35;95170.78;;;1.12;86.93
45129;BME280;35512;56.312;101.728;2022-11-15T06:36:22;95167.44;;;1.15;87.01
45129;BME280;35512;56.312;101.728;2022-11-15T06:39:09;95155.72;;;1.16;87.32
45129;BME280;35512;56.312;101.728;2022-11-15T06:41:57;95153.47;;;1.18;87.78
45129;BME280;35512;56.312;101.728;2022-11-15T06:44:44;95152.16;;;1.25;87.73
45129;BME280;35512;56.312;101.728;2022-11-15T06:47:31;95143.97;;;1.30;88.01
45129;BME280;35512;56.312;101.728;2022-11-15T06:50:18;95143.16;;;1.42;88.11
45129;BME280;35512;56.312;101.728;2022-11-15T06:53:05;95135.28;;;1.58;88.22
45129;BME280;35512;56.312;101.728;2022-11-15T06:55:53;95129.16;;;1.69;88.27
45129;BME280;35512;56.312;101.728;2022-11-15T06:58:40;95123.16;;;1.73;88.27
45129;BME280;35512;56.312;101.728;2022-11-15T07:01:28;95126.59;;;1.73;88.30
45129;BME280;35512;56.312;101.728;2022-11-15T07:04:16;95120.16;;;1.74;88.25
45129;BME280;35512;56.312;101.728;2022-11-15T07:07:03;95121.25;;;1.73;88.39
45129;BME280;35512;56.312;101.728;2022-11-15T07:09:50;95086.16;;;1.55;88.06
45129;BME280;35512;56.312;101.728;2022-11-15T07:12:38;95103.88;;;1.63;88.62
45129;BME280;35512;56.312;101.728;2022-11-15T07:15:26;95103.53;;;1.65;88.33
45129;BME280;35512;56.312;101.728;2022-11-15T07:18:13;95099.22;;;1.73;88.79
45129;BME280;35512;56.312;101.728;2022-11-15T07:21:05;95094.06;;;1.80;88.88
45129;BME280;35512;56.312;101.728;2022-11-15T07:23:53;95105.03;;;1.91;88.92
45129;BME280;35512;56.312;101.728;2022-11-15T07:26:40;95096.69;;;2.05;88.95
45129;BME280;35512;56.312;101.728;2022-11-15T07:29:27;95105.13;;;2.23;88.78
45129;BME280;35512;56.312;101.728;2022-11-15T07:32:14;95101.38;;;2.24;87.91
45129;BME280;35512;56.312;101.728;2022-11-15T07:35:01;95100.22;;;2.25;88.54
45129;BME280;35512;56.312;101.728;2022-11-15T07:37:59;95098.34;;;2.25;88.46
45129;BME280;35512;56.312;101.728;2022-11-15T07:40:56;95091.81;;;2.23;88.15
45129;BME280;35512;56.312;101.728;2022-11-15T07:43:44;95094.56;;;2.26;88.45
45129;BME280;35512;56.312;101.728;2022-11-15T07:46:31;95101.03;;;2.25;88.02
45129;BME280;35512;56.312;101.728;2022-11-15T07:49:19;95090.94;;;2.18;88.71
45129;BME280;35512;56.312;101.728;2022-11-15T07:52:06;95092.28;;;2.12;88.19
45129;BME280;35512;56.312;101.728;2022-11-15T07:54:53;95104.41;;;2.10;88.64
45129;BME280;35512;56.312;101.728;2022-11-15T07:57:40;95091.09;;;2.10;88.80
45129;BME280;35512;56.312;101.728;2022-11-15T08:00:29;95103.53;;;2.06;88.72
45129;BME280;35512;56.312;101.728;2022-11-15T08:03:17;95098.88;;;2.02;88.72
45129;BME280;35512;56.312;101.728;2022-11-15T08:06:05;95100.00;;;2.01;88.79
45129;BME280;35512;56.312;101.728;2022-11-15T08:08:52;95096.56;;;2.01;89.31
45129;BME280;35512;56.312;101.728;2022-11-15T08:11:39;95095.00;;;2.00;88.88
45129;BME280;35512;56.312;101.728;2022-11-15T08:14:26;95075.50;;;1.96;88.91
45129;BME280;35512;56.312;101.728;2022-11-15T08:17:14;95084.94;;;1.93;88.77
45129;BME280;35512;56.312;101.728;2022-11-15T08:20:04;95078.41;;;1.91;88.99
45129;BME280;35512;56.312;101.728;2022-11-15T08:22:51;95078.50;;;1.94;89.18
45129;BME280;35512;56.312;101.728;2022-11-15T08:25:39;95074.63;;;1.92;88.80
45129;BME280;35512;56.312;101.728;2022-11-15T08:28:27;95069.69;;;1.78;88.72
45129;BME280;35512;56.312;101.728;2022-11-15T08:31:15;95069.69;;;1.78;88.42
45129;BME280;35512;56.312;101.728;2022-11-15T08:34:04;95064.72;;;1.76;88.56
45129;BME280;35512;56.312;101.728;2022-11-15T08:36:52;95060.84;;;1.74;88.26
45129;BME280;35512;56.312;101.728;2022-11-15T08:39:40;95056.28;;;1.74;88.66
45129;BME280;35512;56.312;101.728;2022-11-15T08:42:29;95054.72;;;1.73;88.56
45129;BME280;35512;56.312;101.728;2022-11-15T08:45:16;95060.72;;;1.70;88.72
45129;BME280;35512;56.312;101.728;2022-11-15T08:48:04;95050.09;;;1.70;88.47
45129;BME280;35512;56.312;101.728;2022-11-15T08:50:56;95056.63;;;1.73;89.00
45129;BME280;35512;56.312;101.728;2022-11-15T08:53:43;95053.53;;;1.71;88.91
45129;BME280;35512;56.312;101.728;2022-11-15T08:56:30;95051.97;;;1.69;89.07
45129;BME280;35512;56.312;101.728;2022-11-15T08:59:18;95047.78;;;1.68;89.02
45129;BME280;35512;56.312;101.728;2022-11-15T09:02:06;95043.13;;;1.65;89.00
45129;BME280;35512;56.312;101.728;2022-11-15T09:04:53;95032.81;;;1.64;88.88
45129;BME280;35512;56.312;101.728;2022-11-15T09:07:40;95039.50;;;1.58;88.87
45129;BME280;35512;56.312;101.728;2022-11-15T09:10:28;95039.94;;;1.60;89.38
45129;BME280;35512;56.312;101.728;2022-11-15T09:13:15;95031.97;;;1.60;89.05
45129;BME280;35512;56.312;101.728;2022-11-15T09:16:03;95040.34;;;1.62;89.25
45129;BME280;35512;56.312;101.728;2022-11-15T09:18:50;95026.28;;;1.61;89.35
45129;BME280;35512;56.312;101.728;2022-11-15T09:21:38;95028.84;;;1.58;89.39
45129;BME280;35512;56.312;101.728;2022-11-15T09:24:25;95031.31;;;1.50;89.65
45129;BME280;35512;56.312;101.728;2022-11-15T09:27:12;95032.00;;;1.47;89.51
45129;BME280;35512;56.312;101.728;2022-11-15T09:30:00;95025.81;;;1.43;89.71
45129;BME280;35512;56.312;101.728;2022-11-15T09:32:47;95021.13;;;1.40;89.92
45129;BME280;35512;56.312;101.728;2022-11-15T09:35:35;95013.63;;;1.30;89.48
45129;BME280;35512;56.312;101.728;2022-11-15T09:38:22;95016.00;;;1.19;89.70
45129;BME280;35512;56.312;101.728;2022-11-15T09:53:04;95008.16;;;0.86;89.78
45129;BME280;35512;56.312;101.728;2022-11-15T09:55:40;95005.31;;;0.78;89.92
45129;BME280;35512;56.312;101.728;2022-11-15T10:00:52;94996.09;;;0.76;90.06
45129;BME280;35512;56.312;101.728;2022-11-15T10:03:30;95007.63;;;0.80;89.85
45129;BME280;35512;56.312;101.728;2022-11-15T10:06:02;94990.78;;;0.76;90.34
45129;BME280;35512;56.312;101.728;2022-11-15T10:11:36;94993.03;;;0.74;89.81
45129;BME280;35512;56.312;101.728;2022-11-15T10:14:18;94992.03;;;0.66;89.98
45129;BME280;35512;56.312;101.728;2022-11-15T10:24:58;95001.78;;;0.62;90.27
45129;BME280;35512;56.312;101.728;2022-11-15T10:27:29;94992.25;;;0.61;89.87
45129;BME280;35512;56.312;101.728;2022-11-15T10:29:58;94989.59;;;0.61;90.39
45129;BME280;35512;56.312;101.728;2022-11-15T10:32:34;94985.50;;;0.63;90.50
45129;BME280;35512;56.312;101.728;2022-11-15T10:35:28;94984.72;;;0.63;90.37
45129;BME280;35512;56.312;101.728;2022-11-15T10:38:15;94979.06;;;0.64;90.31
45129;BME280;35512;56.312;101.728;2022-11-15T10:40:43;94981.41;;;0.66;90.21
45129;BME280;35512;56.312;101.728;2022-11-15T10:43:29;94977.53;;;0.63;90.50
45129;BME280;35512;56.312;101.728;2022-11-15T10:46:22;94971.75;;;0.61;90.40
45129;BME280;35512;56.312;101.728;2022-11-15T10:49:19;94974.09;;;0.63;90.12
45129;BME280;35512;56.312;101.728;2022-11-15T10:51:58;94966.44;;;0.61;90.45
45129;BME280;35512;56.312;101.728;2022-11-15T10:57:08;94973.06;;;0.92;90.81
45129;BME280;35512;56.312;101.728;2022-11-15T10:59:45;94967.16;;;0.99;90.73
45129;BME280;35512;56.312;101.728;2022-11-15T11:02:56;94970.38;;;1.05;90.84
45129;BME280;35512;56.312;101.728;2022-11-15T11:05:40;94964.47;;;1.11;90.91
45129;BME280;35512;56.312;101.728;2022-11-15T11:10:39;94965.88;;;1.21;90.74
45129;BME280;35512;56.312;101.728;2022-11-15T11:13:38;94961.78;;;1.24;91.03
45129;BME280;35512;56.312;101.728;2022-11-15T11:19:03;94953.22;;;1.30;91.22
45129;BME280;35512;56.312;101.728;2022-11-15T11:30:20;94948.38;;;1.48;90.89
45129;BME280;35512;56.312;101.728;2022-11-15T11:33:24;94946.59;;;1.52;91.11
45129;BME280;35512;56.312;101.728;2022-11-15T11:36:25;94938.81;;;1.60;90.69
45129;BME280;35512;56.312;101.728;2022-11-15T11:44:41;94924.59;;;1.68;90.44
45129;BME280;35512;56.312;101.728;2022-11-15T11:47:30;94925.44;;;1.72;90.28
45129;BME280;35512;56.312;101.728;2022-11-15T11:50:28;94915.06;;;1.67;90.70
45129;BME280;35512;56.312;101.728;2022-11-15T11:53:03;94931.63;;;1.76;90.49
45129;BME280;35512;56.312;101.728;2022-11-15T11:55:53;94919.19;;;1.80;90.71
45129;BME280;35512;56.312;101.728;2022-11-15T11:58:38;94930.69;;;1.84;90.29
45129;BME280;35512;56.312;101.728;2022-11-15T12:01:29;94922.03;;;1.88;90.29
45129;BME280;35512;56.312;101.728;2022-11-15T12:06:47;94911.53;;;1.95;90.48
45129;BME280;35512;56.312;101.728;2022-11-15T12:09:41;94911.97;;;1.97;90.46
45129;BME280;35512;56.312;101.728;2022-11-15T12:12:44;94897.63;;;2.01;90.35
45129;BME280;35512;56.312;101.728;2022-11-15T12:15:26;94890.19;;;1.91;90.38
45129;BME280;35512;56.312;101.728;2022-11-15T12:17:57;94905.72;;;2.05;90.63
45129;BME280;35512;56.312;101.728;2022-11-15T12:20:30;94903.81;;;2.06;90.37
45129;BME280;35512;56.312;101.728;2022-11-15T12:23:38;94898.94;;;2.08;90.14
45129;BME280;35512;56.312;101.728;2022-11-15T12:26:14;94896.28;;;2.08;90.09
45129;BME280;35512;56.312;101.728;2022-11-15T12:36:50;94881.56;;;2.14;89.67
45129;BME280;35512;56.312;101.728;2022-11-15T12:39:19;94876.22;;;2.14;89.37
45129;BME280;35512;56.312;101.728;2022-11-15T12:52:07;94866.03;;;2.16;89.28
45129;BME280;35512;56.312;101.728;2022-11-15T12:59:59;94855.03;;;2.17;88.92
45129;BME280;35512;56.312;101.728;2022-11-15T13:02:44;94856.56;;;2.18;89.02
45129;BME280;35512;56.312;101.728;2022-11-15T13:07:58;94846.19;;;2.13;89.07
45129;BME280;35512;56.312;101.728;2022-11-15T13:12:57;94845.44;;;1.97;88.89
45129;BME280;35512;56.312;101.728;2022-11-15T13:15:31;94836.69;;;1.80;88.75
45129;BME280;35512;56.312;101.728;2022-11-15T13:18:35;94817.09;;;1.57;88.75
45129;BME280;35512;56.312;101.728;2022-11-15T13:21:18;94830.50;;;1.60;88.96
45129;BME280;35512;56.312;101.728;2022-11-15T13:24:13;94817.38;;;1.51;89.26
45129;BME280;35512;56.312;101.728;2022-11-15T13:26:45;94814.59;;;1.48;89.44
45129;BME280;35512;56.312;101.728;2022-11-15T13:29:16;94817.38;;;1.51;89.61
45129;BME280;35512;56.312;101.728;2022-11-15T13:31:46;94814.09;;;1.58;89.10
45129;BME280;35512;56.312;101.728;2022-11-15T13:34:18;94808.50;;;1.63;89.62
45129;BME280;35512;56.312;101.728;2022-11-15T13:37:33;94803.63;;;1.65;89.18
45129;BME280;35512;56.312;101.728;2022-11-15T13:40:20;94799.16;;;1.69;89.17
45129;BME280;35512;56.312;101.728;2022-11-15T13:42:51;94797.63;;;1.68;88.99
45129;BME280;35512;56.312;101.728;2022-11-15T13:45:20;94787.81;;;1.73;89.11
45129;BME280;35512;56.312;101.728;2022-11-15T13:47:57;94774.09;;;1.71;88.67
45129;BME280;35512;56.312;101.728;2022-11-15T13:50:33;94769.44;;;1.67;89.05
45129;BME280;35512;56.312;101.728;2022-11-15T13:53:05;94780.69;;;1.77;89.14
45129;BME280;35512;56.312;101.728;2022-11-15T13:55:35;94781.63;;;1.84;89.02
45129;BME280;35512;56.312;101.728;2022-11-15T13:58:09;94780.19;;;1.87;88.88
